sensor_id;sensor_type;location;lat;lon;timestamp;temperature;humidity
21331;DHT22;10824;51.632;4.950;2023-07-31T00:01:49;16.90;1.00
21331;DHT22;10824;51.632;4.950;2023-07-31T00:04:16;16.80;1.00
21331;DHT22;10824;51.632;4.950;2023-07-31T00:06:43;16.80;1.00
21331;DHT22;10824;51.632;4.950;2023-07-31T00:09:10;16.80;1.00
21331;DHT22;10824;51.632;4.950;2023-07-31T00:11:38;16.90;1.00
21331;DHT22;10824;51.632;4.950;2023-07-31T00:14:05;16.90;99.90
21331;DHT22;10824;51.632;4.950;2023-07-31T00:16:32;16.90;99.90
21331;DHT22;10824;51.632;4.950;2023-07-31T00:18:59;16.90;99.90
21331;DHT22;10824;51.632;4.950;2023-07-31T00:21:26;16.90;99.90
21331;DHT22;10824;51.632;4.950;2023-07-31T00:23:53;16.80;99.90
21331;DHT22;10824;51.632;4.950;2023-07-31T00:26:20;16.80;99.90
21331;DHT22;10824;51.632;4.950;2023-07-31T00:28:47;16.90;99.90
21331;DHT22;10824;51.632;4.950;2023-07-31T00:31:14;16.80;99.90
21331;DHT22;10824;51.632;4.950;2023-07-31T00:33:41;16.90;99.90
21331;DHT22;10824;51.632;4.950;2023-07-31T00:36:09;16.90;99.90
21331;DHT22;10824;51.632;4.950;2023-07-31T00:38:36;16.90;99.90
21331;DHT22;10824;51.632;4.950;2023-07-31T00:41:03;16.90;99.90
21331;DHT22;10824;51.632;4.950;2023-07-31T00:43:30;16.80;57.10
21331;DHT22;10824;51.632;4.950;2023-07-31T00:45:57;16.90;10.60
21331;DHT22;10824;51.632;4.950;2023-07-31T00:48:24;16.90;1.00
21331;DHT22;10824;51.632;4.950;2023-07-31T00:50:52;16.80;1.00
21331;DHT22;10824;51.632;4.950;2023-07-31T00:53:19;16.80;1.00
21331;DHT22;10824;51.632;4.950;2023-07-31T00:55:46;16.80;1.00
21331;DHT22;10824;51.632;4.950;2023-07-31T00:58:13;16.80;1.00
21331;DHT22;10824;51.632;4.950;2023-07-31T01:00:40;16.80;1.00
21331;DHT22;10824;51.632;4.950;2023-07-31T01:03:07;16.80;1.00
21331;DHT22;10824;51.632;4.950;2023-07-31T01:08:54;16.80;1.00
21331;DHT22;10824;51.632;4.950;2023-07-31T01:11:53;16.80;1.00
21331;DHT22;10824;51.632;4.950;2023-07-31T01:14:25;16.80;1.00
21331;DHT22;10824;51.632;4.950;2023-07-31T01:16:52;16.80;1.00
21331;DHT22;10824;51.632;4.950;2023-07-31T01:19:23;16.90;1.00
21331;DHT22;10824;51.632;4.950;2023-07-31T01:25:16;16.80;1.00
21331;DHT22;10824;51.632;4.950;2023-07-31T01:28:04;16.80;1.00
21331;DHT22;10824;51.632;4.950;2023-07-31T01:30:33;16.90;1.00
21331;DHT22;10824;51.632;4.950;2023-07-31T01:33:03;16.90;1.00
21331;DHT22;10824;51.632;4.950;2023-07-31T01:35:34;16.80;1.00
21331;DHT22;10824;51.632;4.950;2023-07-31T01:38:02;16.80;1.00
21331;DHT22;10824;51.632;4.950;2023-07-31T01:40:29;16.80;99.90
21331;DHT22;10824;51.632;4.950;2023-07-31T01:42:56;16.80;99.90
21331;DHT22;10824;51.632;4.950;2023-07-31T01:45:23;16.80;99.90
21331;DHT22;10824;51.632;4.950;2023-07-31T01:47:50;16.80;99.90
21331;DHT22;10824;51.632;4.950;2023-07-31T01:50:17;16.80;99.90
21331;DHT22;10824;51.632;4.950;2023-07-31T01:52:43;16.80;99.90
21331;DHT22;10824;51.632;4.950;2023-07-31T01:55:12;16.80;99.90
21331;DHT22;10824;51.632;4.950;2023-07-31T01:57:39;16.80;99.90
21331;DHT22;10824;51.632;4.950;2023-07-31T02:00:06;16.80;99.90
21331;DHT22;10824;51.632;4.950;2023-07-31T02:02:39;16.70;1.00
21331;DHT22;10824;51.632;4.950;2023-07-31T02:05:06;16.70;1.00
21331;DHT22;10824;51.632;4.950;2023-07-31T02:07:34;16.70;1.00
21331;DHT22;10824;51.632;4.950;2023-07-31T02:10:01;16.70;1.00
21331;DHT22;10824;51.632;4.950;2023-07-31T02:12:28;16.70;1.00
21331;DHT22;10824;51.632;4.950;2023-07-31T02:14:57;16.70;1.00
21331;DHT22;10824;51.632;4.950;2023-07-31T02:17:24;16.70;1.00
21331;DHT22;10824;51.632;4.950;2023-07-31T02:19:52;16.70;1.00
21331;DHT22;10824;51.632;4.950;2023-07-31T02:22:19;16.70;1.00
21331;DHT22;10824;51.632;4.950;2023-07-31T02:24:46;16.70;99.90
21331;DHT22;10824;51.632;4.950;2023-07-31T02:27:13;16.70;1.00
21331;DHT22;10824;51.632;4.950;2023-07-31T02:29:40;16.70;1.00
21331;DHT22;10824;51.632;4.950;2023-07-31T02:32:07;16.70;1.00
21331;DHT22;10824;51.632;4.950;2023-07-31T02:34:35;16.70;99.90
21331;DHT22;10824;51.632;4.950;2023-07-31T02:37:02;16.70;99.90
21331;DHT22;10824;51.632;4.950;2023-07-31T02:39:29;16.70;99.90
21331;DHT22;10824;51.632;4.950;2023-07-31T02:41:56;16.70;99.90
21331;DHT22;10824;51.632;4.950;2023-07-31T02:44:23;16.70;99.90
21331;DHT22;10824;51.632;4.950;2023-07-31T02:46:50;16.70;99.90
21331;DHT22;10824;51.632;4.950;2023-07-31T02:49:20;16.70;99.90
21331;DHT22;10824;51.632;4.950;2023-07-31T02:51:51;16.70;99.90
21331;DHT22;10824;51.632;4.950;2023-07-31T02:54:18;16.70;99.90
21331;DHT22;10824;51.632;4.950;2023-07-31T02:56:47;16.70;99.90
21331;DHT22;10824;51.632;4.950;2023-07-31T02:59:16;16.70;99.90
21331;DHT22;10824;51.632;4.950;2023-07-31T03:01:43;16.70;99.90
21331;DHT22;10824;51.632;4.950;2023-07-31T03:04:11;16.70;99.90
21331;DHT22;10824;51.632;4.950;2023-07-31T03:06:38;16.70;99.90
21331;DHT22;10824;51.632;4.950;2023-07-31T03:09:05;16.60;99.90
21331;DHT22;10824;51.632;4.950;2023-07-31T03:11:33;16.70;99.90
21331;DHT22;10824;51.632;4.950;2023-07-31T03:14:01;16.70;99.90
21331;DHT22;10824;51.632;4.950;2023-07-31T03:16:28;16.70;32.60
21331;DHT22;10824;51.632;4.950;2023-07-31T03:18:55;16.70;72.00
21331;DHT22;10824;51.632;4.950;2023-07-31T03:21:21;16.70;99.90
21331;DHT22;10824;51.632;4.950;2023-07-31T03:23:49;16.70;99.90
21331;DHT22;10824;51.632;4.950;2023-07-31T03:26:16;16.70;99.90
21331;DHT22;10824;51.632;4.950;2023-07-31T03:28:43;16.70;99.90
21331;DHT22;10824;51.632;4.950;2023-07-31T03:31:10;16.70;99.90
21331;DHT22;10824;51.632;4.950;2023-07-31T03:33:41;16.70;99.90
21331;DHT22;10824;51.632;4.950;2023-07-31T03:36:08;16.70;99.90
21331;DHT22;10824;51.632;4.950;2023-07-31T03:38:35;16.70;99.90
21331;DHT22;10824;51.632;4.950;2023-07-31T03:41:02;16.70;12.90
21331;DHT22;10824;51.632;4.950;2023-07-31T03:43:29;16.80;96.70
21331;DHT22;10824;51.632;4.950;2023-07-31T03:45:56;16.80;79.70
21331;DHT22;10824;51.632;4.950;2023-07-31T03:48:24;16.80;99.90
21331;DHT22;10824;51.632;4.950;2023-07-31T03:50:51;16.80;99.90
21331;DHT22;10824;51.632;4.950;2023-07-31T03:53:18;16.80;32.60
21331;DHT22;10824;51.632;4.950;2023-07-31T03:55:45;16.70;99.90
21331;DHT22;10824;51.632;4.950;2023-07-31T03:58:12;16.80;15.60
21331;DHT22;10824;51.632;4.950;2023-07-31T04:00:40;16.80;3.30
21331;DHT22;10824;51.632;4.950;2023-07-31T04:03:07;16.80;86.90
21331;DHT22;10824;51.632;4.950;2023-07-31T04:05:38;16.80;24.30
21331;DHT22;10824;51.632;4.950;2023-07-31T04:08:06;16.80;99.90
21331;DHT22;10824;51.632;4.950;2023-07-31T04:10:33;16.80;99.90
21331;DHT22;10824;51.632;4.950;2023-07-31T04:13:01;16.80;99.90
21331;DHT22;10824;51.632;4.950;2023-07-31T04:15:28;16.70;99.90
21331;DHT22;10824;51.632;4.950;2023-07-31T04:17:55;16.70;1.00
21331;DHT22;10824;51.632;4.950;2023-07-31T04:20:23;16.70;99.90
21331;DHT22;10824;51.632;4.950;2023-07-31T04:22:50;16.60;99.90
21331;DHT22;10824;51.632;4.950;2023-07-31T04:25:17;16.60;99.90
21331;DHT22;10824;51.632;4.950;2023-07-31T04:27:44;16.60;99.90
21331;DHT22;10824;51.632;4.950;2023-07-31T04:30:11;16.60;99.90
21331;DHT22;10824;51.632;4.950;2023-07-31T04:32:38;16.50;99.90
21331;DHT22;10824;51.632;4.950;2023-07-31T04:35:06;16.50;1.00
21331;DHT22;10824;51.632;4.950;2023-07-31T04:37:33;16.50;1.00
21331;DHT22;10824;51.632;4.950;2023-07-31T04:40:00;16.50;1.00
21331;DHT22;10824;51.632;4.950;2023-07-31T04:42:27;16.50;1.00
21331;DHT22;10824;51.632;4.950;2023-07-31T04:44:54;16.50;1.00
21331;DHT22;10824;51.632;4.950;2023-07-31T04:47:21;16.50;1.00
21331;DHT22;10824;51.632;4.950;2023-07-31T04:49:48;16.50;66.90
21331;DHT22;10824;51.632;4.950;2023-07-31T04:52:15;16.50;99.90
21331;DHT22;10824;51.632;4.950;2023-07-31T04:54:42;16.40;99.90
21331;DHT22;10824;51.632;4.950;2023-07-31T04:57:09;16.40;99.90
21331;DHT22;10824;51.632;4.950;2023-07-31T04:59:36;16.40;99.90
21331;DHT22;10824;51.632;4.950;2023-07-31T05:02:08;16.40;99.90
21331;DHT22;10824;51.632;4.950;2023-07-31T05:04:35;16.40;99.90
21331;DHT22;10824;51.632;4.950;2023-07-31T05:07:02;16.40;1.00
21331;DHT22;10824;51.632;4.950;2023-07-31T05:09:29;16.40;1.00
21331;DHT22;10824;51.632;4.950;2023-07-31T05:11:56;16.40;1.00
21331;DHT22;10824;51.632;4.950;2023-07-31T05:14:23;16.40;1.00
21331;DHT22;10824;51.632;4.950;2023-07-31T05:16:50;16.40;99.90
21331;DHT22;10824;51.632;4.950;2023-07-31T05:19:18;16.40;99.90
21331;DHT22;10824;51.632;4.950;2023-07-31T05:21:45;16.40;99.90
21331;DHT22;10824;51.632;4.950;2023-07-31T05:24:12;16.40;99.90
21331;DHT22;10824;51.632;4.950;2023-07-31T05:26:39;16.30;99.90
21331;DHT22;10824;51.632;4.950;2023-07-31T05:29:06;16.30;99.90
21331;DHT22;10824;51.632;4.950;2023-07-31T05:31:33;16.40;99.90
21331;DHT22;10824;51.632;4.950;2023-07-31T05:34:02;16.30;1.00
21331;DHT22;10824;51.632;4.950;2023-07-31T05:36:29;16.30;1.00
21331;DHT22;10824;51.632;4.950;2023-07-31T05:38:56;16.30;1.00
21331;DHT22;10824;51.632;4.950;2023-07-31T05:41:23;16.30;1.00
21331;DHT22;10824;51.632;4.950;2023-07-31T05:43:50;16.30;1.00
21331;DHT22;10824;51.632;4.950;2023-07-31T05:46:18;16.30;1.00
21331;DHT22;10824;51.632;4.950;2023-07-31T05:48:45;16.30;1.00
21331;DHT22;10824;51.632;4.950;2023-07-31T05:51:12;16.40;1.00
21331;DHT22;10824;51.632;4.950;2023-07-31T05:53:39;16.30;1.00
21331;DHT22;10824;51.632;4.950;2023-07-31T05:56:07;16.40;1.00
21331;DHT22;10824;51.632;4.950;2023-07-31T05:58:34;16.40;1.00
21331;DHT22;10824;51.632;4.950;2023-07-31T06:01:01;16.40;1.00
21331;DHT22;10824;51.632;4.950;2023-07-31T06:03:28;16.40;1.00
21331;DHT22;10824;51.632;4.950;2023-07-31T06:05:55;16.40;1.00
21331;DHT22;10824;51.632;4.950;2023-07-31T06:08:23;16.40;1.00
21331;DHT22;10824;51.632;4.950;2023-07-31T06:10:50;16.40;1.00
21331;DHT22;10824;51.632;4.950;2023-07-31T06:13:17;16.40;1.00
21331;DHT22;10824;51.632;4.950;2023-07-31T06:15:44;16.40;1.00
21331;DHT22;10824;51.632;4.950;2023-07-31T06:18:11;16.40;1.00
21331;DHT22;10824;51.632;4.950;2023-07-31T06:20:38;16.40;1.00
21331;DHT22;10824;51.632;4.950;2023-07-31T06:23:07;16.50;1.00
21331;DHT22;10824;51.632;4.950;2023-07-31T06:25:34;16.50;1.00
21331;DHT22;10824;51.632;4.950;2023-07-31T06:28:01;16.50;1.00
21331;DHT22;10824;51.632;4.950;2023-07-31T06:30:28;16.50;1.00
21331;DHT22;10824;51.632;4.950;2023-07-31T06:32:55;16.60;1.00
21331;DHT22;10824;51.632;4.950;2023-07-31T06:35:22;16.60;1.00
21331;DHT22;10824;51.632;4.950;2023-07-31T06:37:49;16.60;1.00
21331;DHT22;10824;51.632;4.950;2023-07-31T06:40:17;16.60;1.00
21331;DHT22;10824;51.632;4.950;2023-07-31T06:42:46;16.60;1.00
21331;DHT22;10824;51.632;4.950;2023-07-31T06:45:13;16.70;1.00
21331;DHT22;10824;51.632;4.950;2023-07-31T06:47:40;16.70;1.00
21331;DHT22;10824;51.632;4.950;2023-07-31T06:50:08;16.70;1.00
21331;DHT22;10824;51.632;4.950;2023-07-31T06:52:35;16.70;1.00
21331;DHT22;10824;51.632;4.950;2023-07-31T06:55:19;16.80;1.00
21331;DHT22;10824;51.632;4.950;2023-07-31T06:57:47;16.80;1.00
21331;DHT22;10824;51.632;4.950;2023-07-31T07:00:16;16.70;1.00
21331;DHT22;10824;51.632;4.950;2023-07-31T07:02:43;16.80;1.00
21331;DHT22;10824;51.632;4.950;2023-07-31T07:05:10;16.80;1.00
21331;DHT22;10824;51.632;4.950;2023-07-31T07:07:37;16.80;1.00
21331;DHT22;10824;51.632;4.950;2023-07-31T07:10:05;16.80;1.00
21331;DHT22;10824;51.632;4.950;2023-07-31T07:12:33;16.80;1.00
21331;DHT22;10824;51.632;4.950;2023-07-31T07:15:00;16.80;1.00
21331;DHT22;10824;51.632;4.950;2023-07-31T07:17:29;16.80;1.00
21331;DHT22;10824;51.632;4.950;2023-07-31T07:20:00;16.80;1.00
21331;DHT22;10824;51.632;4.950;2023-07-31T07:22:27;16.80;1.00
21331;DHT22;10824;51.632;4.950;2023-07-31T07:24:55;16.90;1.00
21331;DHT22;10824;51.632;4.950;2023-07-31T07:27:22;16.90;1.00
21331;DHT22;10824;51.632;4.950;2023-07-31T07:29:51;16.90;1.00
21331;DHT22;10824;51.632;4.950;2023-07-31T07:32:19;16.90;1.00
21331;DHT22;10824;51.632;4.950;2023-07-31T07:34:48;17.00;1.00
21331;DHT22;10824;51.632;4.950;2023-07-31T07:37:15;16.90;1.00
21331;DHT22;10824;51.632;4.950;2023-07-31T07:39:43;17.00;1.00
21331;DHT22;10824;51.632;4.950;2023-07-31T07:42:10;17.00;1.00
21331;DHT22;10824;51.632;4.950;2023-07-31T07:44:37;17.00;1.00
21331;DHT22;10824;51.632;4.950;2023-07-31T07:47:05;17.00;1.00
21331;DHT22;10824;51.632;4.950;2023-07-31T07:49:35;17.00;1.00
21331;DHT22;10824;51.632;4.950;2023-07-31T07:52:03;16.90;1.00
21331;DHT22;10824;51.632;4.950;2023-07-31T07:54:30;16.90;1.00
21331;DHT22;10824;51.632;4.950;2023-07-31T07:56:58;16.90;1.00
21331;DHT22;10824;51.632;4.950;2023-07-31T07:59:26;16.90;1.00
21331;DHT22;10824;51.632;4.950;2023-07-31T08:01:53;17.00;1.00
21331;DHT22;10824;51.632;4.950;2023-07-31T08:04:20;17.00;1.00
21331;DHT22;10824;51.632;4.950;2023-07-31T08:06:50;16.90;1.00
21331;DHT22;10824;51.632;4.950;2023-07-31T08:09:17;17.00;1.00
21331;DHT22;10824;51.632;4.950;2023-07-31T08:11:44;16.90;1.00
21331;DHT22;10824;51.632;4.950;2023-07-31T08:14:11;16.90;1.00
21331;DHT22;10824;51.632;4.950;2023-07-31T08:16:42;16.90;1.00
21331;DHT22;10824;51.632;4.950;2023-07-31T08:19:28;16.90;1.00
21331;DHT22;10824;51.632;4.950;2023-07-31T08:21:56;17.00;1.00
21331;DHT22;10824;51.632;4.950;2023-07-31T08:24:27;17.00;1.00
21331;DHT22;10824;51.632;4.950;2023-07-31T08:26:58;17.00;1.00
21331;DHT22;10824;51.632;4.950;2023-07-31T08:29:25;16.90;1.00
21331;DHT22;10824;51.632;4.950;2023-07-31T08:31:52;17.00;1.00
21331;DHT22;10824;51.632;4.950;2023-07-31T08:34:22;17.10;1.00
21331;DHT22;10824;51.632;4.950;2023-07-31T08:36:53;17.00;1.00
21331;DHT22;10824;51.632;4.950;2023-07-31T08:39:21;17.10;1.00
21331;DHT22;10824;51.632;4.950;2023-07-31T08:41:51;17.00;1.00
21331;DHT22;10824;51.632;4.950;2023-07-31T08:44:18;17.20;1.00
21331;DHT22;10824;51.632;4.950;2023-07-31T08:46:46;17.20;1.00
21331;DHT22;10824;51.632;4.950;2023-07-31T08:49:14;17.30;1.00
21331;DHT22;10824;51.632;4.950;2023-07-31T08:51:42;17.30;99.90
21331;DHT22;10824;51.632;4.950;2023-07-31T08:54:09;17.30;99.90
21331;DHT22;10824;51.632;4.950;2023-07-31T08:56:37;17.40;99.90
21331;DHT22;10824;51.632;4.950;2023-07-31T08:59:04;17.40;99.90
21331;DHT22;10824;51.632;4.950;2023-07-31T09:01:36;17.40;99.90
21331;DHT22;10824;51.632;4.950;2023-07-31T09:04:06;17.40;99.90
21331;DHT22;10824;51.632;4.950;2023-07-31T09:06:34;17.40;99.90
21331;DHT22;10824;51.632;4.950;2023-07-31T09:09:02;17.50;99.90
21331;DHT22;10824;51.632;4.950;2023-07-31T09:11:29;17.50;99.90
21331;DHT22;10824;51.632;4.950;2023-07-31T09:13:57;17.60;99.90
21331;DHT22;10824;51.632;4.950;2023-07-31T09:16:28;17.70;1.00
21331;DHT22;10824;51.632;4.950;2023-07-31T09:18:59;17.80;1.00
21331;DHT22;10824;51.632;4.950;2023-07-31T09:21:29;18.00;1.00
21331;DHT22;10824;51.632;4.950;2023-07-31T09:23:56;18.00;99.90
21331;DHT22;10824;51.632;4.950;2023-07-31T09:26:36;18.20;1.00
21331;DHT22;10824;51.632;4.950;2023-07-31T09:29:06;18.00;99.90
21331;DHT22;10824;51.632;4.950;2023-07-31T09:31:40;18.00;99.90
21331;DHT22;10824;51.632;4.950;2023-07-31T09:34:09;18.00;99.90
21331;DHT22;10824;51.632;4.950;2023-07-31T09:36:49;18.10;80.10
21331;DHT22;10824;51.632;4.950;2023-07-31T09:39:17;18.20;99.90
21331;DHT22;10824;51.632;4.950;2023-07-31T09:41:53;18.20;97.70
21331;DHT22;10824;51.632;4.950;2023-07-31T09:44:21;18.10;1.00
21331;DHT22;10824;51.632;4.950;2023-07-31T09:46:48;18.20;99.90
21331;DHT22;10824;51.632;4.950;2023-07-31T09:49:15;18.10;51.40
21331;DHT22;10824;51.632;4.950;2023-07-31T09:51:42;18.10;16.00
21331;DHT22;10824;51.632;4.950;2023-07-31T09:54:14;18.10;1.00
21331;DHT22;10824;51.632;4.950;2023-07-31T09:56:46;18.10;14.00
21331;DHT22;10824;51.632;4.950;2023-07-31T09:59:20;18.10;1.00
21331;DHT22;10824;51.632;4.950;2023-07-31T10:01:50;18.20;1.00
21331;DHT22;10824;51.632;4.950;2023-07-31T10:04:21;18.20;1.00
21331;DHT22;10824;51.632;4.950;2023-07-31T10:06:53;18.30;3.20
21331;DHT22;10824;51.632;4.950;2023-07-31T10:09:21;18.30;1.00
21331;DHT22;10824;51.632;4.950;2023-07-31T10:11:59;18.30;1.00
21331;DHT22;10824;51.632;4.950;2023-07-31T10:14:27;18.30;1.00
21331;DHT22;10824;51.632;4.950;2023-07-31T10:16:57;18.30;1.00
21331;DHT22;10824;51.632;4.950;2023-07-31T10:19:26;18.40;1.00
21331;DHT22;10824;51.632;4.950;2023-07-31T10:21:54;18.30;99.90
21331;DHT22;10824;51.632;4.950;2023-07-31T10:24:24;18.40;99.90
21331;DHT22;10824;51.632;4.950;2023-07-31T10:26:52;18.40;99.90
21331;DHT22;10824;51.632;4.950;2023-07-31T10:29:20;18.40;99.90
21331;DHT22;10824;51.632;4.950;2023-07-31T10:31:49;18.50;99.90
21331;DHT22;10824;51.632;4.950;2023-07-31T10:34:17;18.50;1.00
21331;DHT22;10824;51.632;4.950;2023-07-31T10:36:44;18.60;99.90
21331;DHT22;10824;51.632;4.950;2023-07-31T10:39:33;18.80;99.90
21331;DHT22;10824;51.632;4.950;2023-07-31T10:42:12;18.80;99.90
21331;DHT22;10824;51.632;4.950;2023-07-31T10:44:49;18.90;12.90
21331;DHT22;10824;51.632;4.950;2023-07-31T10:47:17;19.10;1.00
21331;DHT22;10824;51.632;4.950;2023-07-31T10:49:45;19.10;1.00
21331;DHT22;10824;51.632;4.950;2023-07-31T10:52:13;19.00;1.00
21331;DHT22;10824;51.632;4.950;2023-07-31T10:54:40;18.90;99.90
21331;DHT22;10824;51.632;4.950;2023-07-31T10:57:21;18.90;99.90
21331;DHT22;10824;51.632;4.950;2023-07-31T10:59:49;18.80;1.00
21331;DHT22;10824;51.632;4.950;2023-07-31T11:02:26;18.80;99.90
21331;DHT22;10824;51.632;4.950;2023-07-31T11:05:11;18.80;99.90
21331;DHT22;10824;51.632;4.950;2023-07-31T11:07:48;18.80;1.00
21331;DHT22;10824;51.632;4.950;2023-07-31T11:10:17;18.60;1.00
21331;DHT22;10824;51.632;4.950;2023-07-31T11:12:45;18.70;1.00
21331;DHT22;10824;51.632;4.950;2023-07-31T11:15:13;18.60;99.90
21331;DHT22;10824;51.632;4.950;2023-07-31T11:17:40;18.70;99.90
21331;DHT22;10824;51.632;4.950;2023-07-31T11:20:08;18.70;99.90
21331;DHT22;10824;51.632;4.950;2023-07-31T11:22:36;18.60;64.10
21331;DHT22;10824;51.632;4.950;2023-07-31T11:25:03;18.70;99.90
21331;DHT22;10824;51.632;4.950;2023-07-31T11:27:31;18.70;1.00
21331;DHT22;10824;51.632;4.950;2023-07-31T11:30:06;18.70;1.00
21331;DHT22;10824;51.632;4.950;2023-07-31T11:32:35;18.80;99.90
21331;DHT22;10824;51.632;4.950;2023-07-31T11:35:03;18.80;1.00
21331;DHT22;10824;51.632;4.950;2023-07-31T11:37:39;18.80;1.40
21331;DHT22;10824;51.632;4.950;2023-07-31T11:40:07;18.80;1.00
21331;DHT22;10824;51.632;4.950;2023-07-31T11:42:35;18.80;99.90
21331;DHT22;10824;51.632;4.950;2023-07-31T11:45:07;18.80;1.00
21331;DHT22;10824;51.632;4.950;2023-07-31T11:47:36;18.80;1.00
21331;DHT22;10824;51.632;4.950;2023-07-31T11:50:05;18.80;1.00
21331;DHT22;10824;51.632;4.950;2023-07-31T11:52:40;18.80;1.00
21331;DHT22;10824;51.632;4.950;2023-07-31T11:55:08;18.70;99.90
21331;DHT22;10824;51.632;4.950;2023-07-31T11:57:40;18.60;99.90
21331;DHT22;10824;51.632;4.950;2023-07-31T12:00:09;18.50;99.90
21331;DHT22;10824;51.632;4.950;2023-07-31T12:02:38;18.50;99.90
21331;DHT22;10824;51.632;4.950;2023-07-31T12:05:11;18.60;99.90
21331;DHT22;10824;51.632;4.950;2023-07-31T12:07:53;18.50;99.90
21331;DHT22;10824;51.632;4.950;2023-07-31T12:10:31;18.60;99.90
21331;DHT22;10824;51.632;4.950;2023-07-31T12:13:08;18.50;99.90
21331;DHT22;10824;51.632;4.950;2023-07-31T12:15:42;18.50;1.00
21331;DHT22;10824;51.632;4.950;2023-07-31T12:18:11;18.40;1.00
21331;DHT22;10824;51.632;4.950;2023-07-31T12:20:46;18.40;1.00
21331;DHT22;10824;51.632;4.950;2023-07-31T12:23:21;18.30;9.60
21331;DHT22;10824;51.632;4.950;2023-07-31T12:26:06;18.30;48.10
21331;DHT22;10824;51.632;4.950;2023-07-31T12:28:47;18.30;99.90
21331;DHT22;10824;51.632;4.950;2023-07-31T12:31:16;18.40;99.90
21331;DHT22;10824;51.632;4.950;2023-07-31T12:33:45;18.40;99.90
21331;DHT22;10824;51.632;4.950;2023-07-31T12:36:18;18.40;99.90
21331;DHT22;10824;51.632;4.950;2023-07-31T12:38:46;18.50;99.90
21331;DHT22;10824;51.632;4.950;2023-07-31T12:41:14;18.50;99.90
21331;DHT22;10824;51.632;4.950;2023-07-31T12:43:42;18.60;99.90
21331;DHT22;10824;51.632;4.950;2023-07-31T12:46:09;18.60;99.90
21331;DHT22;10824;51.632;4.950;2023-07-31T12:48:38;18.60;99.90
21331;DHT22;10824;51.632;4.950;2023-07-31T12:51:05;18.70;99.90
21331;DHT22;10824;51.632;4.950;2023-07-31T12:53:36;18.60;99.90
21331;DHT22;10824;51.632;4.950;2023-07-31T12:56:03;18.70;83.80
21331;DHT22;10824;51.632;4.950;2023-07-31T12:58:30;18.70;1.00
21331;DHT22;10824;51.632;4.950;2023-07-31T13:00:58;18.70;1.00
21331;DHT22;10824;51.632;4.950;2023-07-31T13:03:25;18.70;1.00
21331;DHT22;10824;51.632;4.950;2023-07-31T13:05:53;18.80;1.00
21331;DHT22;10824;51.632;4.950;2023-07-31T13:08:20;18.80;99.90
21331;DHT22;10824;51.632;4.950;2023-07-31T13:10:47;18.80;99.90
21331;DHT22;10824;51.632;4.950;2023-07-31T13:13:15;18.80;99.90
21331;DHT22;10824;51.632;4.950;2023-07-31T13:15:43;18.90;99.90
21331;DHT22;10824;51.632;4.950;2023-07-31T13:18:10;18.90;99.90
21331;DHT22;10824;51.632;4.950;2023-07-31T13:20:37;18.90;99.90
21331;DHT22;10824;51.632;4.950;2023-07-31T13:23:07;18.90;99.90
21331;DHT22;10824;51.632;4.950;2023-07-31T13:25:34;19.00;99.90
21331;DHT22;10824;51.632;4.950;2023-07-31T13:28:01;19.00;1.00
21331;DHT22;10824;51.632;4.950;2023-07-31T13:30:31;19.10;1.00
21331;DHT22;10824;51.632;4.950;2023-07-31T13:32:59;18.90;1.00
21331;DHT22;10824;51.632;4.950;2023-07-31T13:35:27;18.80;1.00
21331;DHT22;10824;51.632;4.950;2023-07-31T13:37:55;18.70;1.00
21331;DHT22;10824;51.632;4.950;2023-07-31T13:40:42;18.60;99.90
21331;DHT22;10824;51.632;4.950;2023-07-31T13:43:10;18.60;81.40
21331;DHT22;10824;51.632;4.950;2023-07-31T13:45:39;18.60;22.00
21331;DHT22;10824;51.632;4.950;2023-07-31T13:48:07;18.70;99.90
21331;DHT22;10824;51.632;4.950;2023-07-31T13:50:40;18.60;15.50
21331;DHT22;10824;51.632;4.950;2023-07-31T13:53:08;18.70;70.10
21331;DHT22;10824;51.632;4.950;2023-07-31T13:55:35;18.70;95.30
21331;DHT22;10824;51.632;4.950;2023-07-31T13:58:02;18.80;99.90
21331;DHT22;10824;51.632;4.950;2023-07-31T14:00:30;18.70;99.90
21331;DHT22;10824;51.632;4.950;2023-07-31T14:02:57;18.60;99.90
21331;DHT22;10824;51.632;4.950;2023-07-31T14:05:27;18.60;99.90
21331;DHT22;10824;51.632;4.950;2023-07-31T14:07:54;18.70;99.90
21331;DHT22;10824;51.632;4.950;2023-07-31T14:10:21;18.60;99.90
21331;DHT22;10824;51.632;4.950;2023-07-31T14:12:49;18.70;1.00
21331;DHT22;10824;51.632;4.950;2023-07-31T14:15:16;18.70;1.00
21331;DHT22;10824;51.632;4.950;2023-07-31T14:17:43;18.70;1.00
21331;DHT22;10824;51.632;4.950;2023-07-31T14:20:10;18.70;1.00
21331;DHT22;10824;51.632;4.950;2023-07-31T14:22:38;18.70;1.00
21331;DHT22;10824;51.632;4.950;2023-07-31T14:25:06;18.70;1.00
21331;DHT22;10824;51.632;4.950;2023-07-31T14:27:33;18.70;1.00
21331;DHT22;10824;51.632;4.950;2023-07-31T14:30:00;18.70;1.00
21331;DHT22;10824;51.632;4.950;2023-07-31T14:32:27;18.70;1.00
21331;DHT22;10824;51.632;4.950;2023-07-31T14:34:55;18.70;1.00
21331;DHT22;10824;51.632;4.950;2023-07-31T14:37:25;18.70;1.00
21331;DHT22;10824;51.632;4.950;2023-07-31T14:39:52;18.60;1.00
21331;DHT22;10824;51.632;4.950;2023-07-31T14:42:19;18.60;1.00
21331;DHT22;10824;51.632;4.950;2023-07-31T14:44:47;18.60;1.00
21331;DHT22;10824;51.632;4.950;2023-07-31T14:47:14;18.50;1.00
21331;DHT22;10824;51.632;4.950;2023-07-31T14:49:41;18.50;1.00
21331;DHT22;10824;51.632;4.950;2023-07-31T14:52:08;18.50;1.00
21331;DHT22;10824;51.632;4.950;2023-07-31T14:57:26;18.40;1.00
21331;DHT22;10824;51.632;4.950;2023-07-31T14:59:56;18.40;1.00
21331;DHT22;10824;51.632;4.950;2023-07-31T15:02:26;18.40;1.00
21331;DHT22;10824;51.632;4.950;2023-07-31T15:04:55;18.40;1.00
21331;DHT22;10824;51.632;4.950;2023-07-31T15:07:28;18.30;1.00
21331;DHT22;10824;51.632;4.950;2023-07-31T15:10:02;18.40;1.00
21331;DHT22;10824;51.632;4.950;2023-07-31T15:12:32;18.40;1.00
21331;DHT22;10824;51.632;4.950;2023-07-31T15:15:09;18.40;1.00
21331;DHT22;10824;51.632;4.950;2023-07-31T15:17:36;18.40;1.00
21331;DHT22;10824;51.632;4.950;2023-07-31T15:20:09;18.30;1.00
21331;DHT22;10824;51.632;4.950;2023-07-31T15:22:36;18.30;1.00
21331;DHT22;10824;51.632;4.950;2023-07-31T15:25:04;18.30;1.00
21331;DHT22;10824;51.632;4.950;2023-07-31T15:27:33;18.20;1.00
21331;DHT22;10824;51.632;4.950;2023-07-31T15:30:01;18.20;1.00
21331;DHT22;10824;51.632;4.950;2023-07-31T15:32:32;18.10;1.00
21331;DHT22;10824;51.632;4.950;2023-07-31T15:35:00;18.10;1.00
21331;DHT22;10824;51.632;4.950;2023-07-31T15:37:30;18.00;1.00
21331;DHT22;10824;51.632;4.950;2023-07-31T15:39:58;18.00;1.00
21331;DHT22;10824;51.632;4.950;2023-07-31T15:42:25;18.00;1.00
21331;DHT22;10824;51.632;4.950;2023-07-31T15:44:52;18.00;1.00
21331;DHT22;10824;51.632;4.950;2023-07-31T15:47:19;18.00;1.00
21331;DHT22;10824;51.632;4.950;2023-07-31T15:49:46;18.00;1.00
21331;DHT22;10824;51.632;4.950;2023-07-31T15:52:14;18.10;1.00
21331;DHT22;10824;51.632;4.950;2023-07-31T15:54:41;18.00;1.00
21331;DHT22;10824;51.632;4.950;2023-07-31T15:57:08;18.00;1.00
21331;DHT22;10824;51.632;4.950;2023-07-31T15:59:35;18.00;1.00